Time;durP1;ratioP1;P1;durP2;ratioP2;P2;SDS_P1;SDS_P2;PMS_P1;PMS_P2;Temp;Humidity;BMP_temperature;BMP_pressure;BME280_temperature;BME280_humidity;BME280_pressure;Samples;Min_cycle;Max_cycle;Signal;HPM_P1;HPM_P2
2024/01/08 00:00:05;;;;;;;3.63;3.13;;;-2.20;99.90;;;;;;5049752;28;20036;-72
2024/01/08 00:02:30;;;;;;;1.20;1.10;;;-2.20;99.90;;;;;;5058800;28;20045;-71
2024/01/08 00:04:56;;;;;;;1.00;1.00;;;-2.20;99.90;;;;;;5045598;28;20037;-72
2024/01/08 00:07:21;;;;;;;1.58;1.48;;;-2.20;99.90;;;;;;5063196;28;20071;-72
2024/01/08 00:09:47;;;;;;;2.05;1.92;;;-2.20;99.90;;;;;;5060539;28;20040;-72
2024/01/08 00:12:13;;;;;;;1.02;1.02;;;-2.30;99.90;;;;;;5057172;28;20040;-72
2024/01/08 00:14:39;;;;;;;1.27;1.20;;;-2.30;99.90;;;;;;5065520;28;20044;-72
2024/01/08 00:17:05;;;;;;;1.65;1.52;;;-2.30;99.90;;;;;;5056116;28;20123;-72
2024/01/08 00:19:31;;;;;;;4.95;2.00;;;-2.30;99.90;;;;;;5066839;28;20127;-72
2024/01/08 00:21:57;;;;;;;2.17;1.75;;;-2.30;99.90;;;;;;5047812;28;20573;-72
2024/01/08 00:24:23;;;;;;;1.38;1.20;;;-2.30;99.90;;;;;;5066838;28;20052;-72
2024/01/08 00:26:48;;;;;;;1.83;1.73;;;-2.30;99.90;;;;;;5064509;28;20375;-72
2024/01/08 00:29:14;;;;;;;2.92;2.42;;;-2.30;99.90;;;;;;5054878;28;20116;-72
2024/01/08 00:31:39;;;;;;;2.17;2.08;;;-2.30;99.90;;;;;;5043409;28;20544;-72
2024/01/08 00:34:05;;;;;;;2.28;2.08;;;-2.40;99.90;;;;;;5066559;28;20070;-72
2024/01/08 00:36:34;;;;;;;1.73;1.63;;;-2.40;99.90;;;;;;5066490;28;20071;-72
2024/01/08 00:38:59;;;;;;;1.13;1.13;;;-2.40;99.90;;;;;;5066271;28;20037;-72
2024/01/08 00:41:25;;;;;;;4.82;2.83;;;-2.40;99.90;;;;;;5049880;28;20052;-71
2024/01/08 00:43:51;;;;;;;1.63;1.52;;;-2.40;99.90;;;;;;5063719;28;20102;-73
2024/01/08 00:46:17;;;;;;;1.67;1.58;;;-2.40;99.90;;;;;;5063221;28;20036;-72
2024/01/08 00:48:43;;;;;;;1.00;1.00;;;-2.40;99.90;;;;;;5064648;28;20073;-72
2024/01/08 00:51:12;;;;;;;1.60;1.25;;;-2.40;99.90;;;;;;5061797;28;20451;-72
2024/01/08 00:53:37;;;;;;;;;;;-2.40;99.90;;;;;;5064805;28;20105;-73
2024/01/08 00:56:03;;;;;;;3.45;2.33;;;-2.40;99.90;;;;;;5066808;28;20398;-72
2024/01/08 00:58:30;;;;;;;1.10;1.10;;;-2.40;99.90;;;;;;5064473;28;20036;-71
2024/01/08 01:00:56;;;;;;;1.75;1.58;;;-2.30;99.90;;;;;;5061512;28;20449;-73
2024/01/08 01:03:22;;;;;;;1.65;1.55;;;-2.30;99.90;;;;;;5040410;28;20041;-72
2024/01/08 01:05:48;;;;;;;2.15;2.05;;;-2.20;99.90;;;;;;5060078;28;20054;-73
2024/01/08 01:08:13;;;;;;;3.35;3.10;;;-2.20;99.90;;;;;;5062726;28;20045;-73
2024/01/08 01:10:39;;;;;;;3.05;2.58;;;-2.20;99.90;;;;;;5043989;28;20098;-72
2024/01/08 01:13:05;;;;;;;2.53;2.35;;;-2.20;99.90;;;;;;5041027;28;20048;-72
2024/01/08 01:15:31;;;;;;;2.13;1.92;;;-2.10;99.90;;;;;;5045665;28;20041;-73
2024/01/08 01:17:56;;;;;;;2.03;1.83;;;-2.10;99.90;;;;;;5036561;28;20040;-71
2024/01/08 01:20:22;;;;;;;3.45;1.60;;;-2.10;99.90;;;;;;5053971;28;20043;-73
2024/01/08 01:22:48;;;;;;;1.60;1.50;;;-2.00;99.90;;;;;;5058202;28;20624;-72
2024/01/08 01:25:14;;;;;;;3.55;1.98;;;-2.10;99.90;;;;;;5064348;28;20098;-73
2024/01/08 01:27:39;;;;;;;1.75;1.55;;;-2.00;99.90;;;;;;5066176;28;20748;-72
2024/01/08 01:30:06;;;;;;;6.00;1.85;;;-2.00;99.90;;;;;;5057538;28;20407;-73
2024/01/08 01:32:32;;;;;;;2.15;2.05;;;-2.00;99.90;;;;;;5040173;28;20055;-72
2024/01/08 01:34:58;;;;;;;2.75;1.58;;;-2.00;99.90;;;;;;5064135;28;20498;-72
2024/01/08 01:37:23;;;;;;;4.70;2.13;;;-1.90;99.90;;;;;;5056685;28;20036;-72
2024/01/08 01:39:49;;;;;;;2.30;2.13;;;-1.90;99.90;;;;;;5038791;28;20036;-72
2024/01/08 01:42:16;;;;;;;2.10;2.00;;;-1.90;99.90;;;;;;5037163;28;20033;-73
2024/01/08 01:44:42;;;;;;;2.67;2.17;;;-1.90;99.90;;;;;;5065433;28;20297;-72
2024/01/08 01:47:08;;;;;;;2.70;1.63;;;-1.80;99.90;;;;;;5040697;28;20041;-72
2024/01/08 01:49:34;;;;;;;2.47;1.27;;;-1.80;99.90;;;;;;5061721;28;20037;-73
2024/01/08 01:52:01;;;;;;;1.40;1.30;;;-1.80;99.90;;;;;;5038308;28;20716;-73
2024/01/08 01:54:28;;;;;;;1.92;1.83;;;-1.80;99.90;;;;;;5065090;28;20067;-72
2024/01/08 01:56:57;;;;;;;2.88;2.20;;;-1.80;99.90;;;;;;5056264;28;20037;-73
2024/01/08 01:59:26;;;;;;;1.80;1.70;;;-1.80;99.90;;;;;;5057157;28;20055;-71
2024/01/08 02:01:52;;;;;;;1.90;1.80;;;-1.70;99.90;;;;;;5064037;28;20032;-72
2024/01/08 02:04:19;;;;;;;1.48;1.48;;;-1.70;99.90;;;;;;5066563;28;20036;-72
2024/01/08 02:06:45;;;;;;;1.90;1.80;;;-1.70;99.90;;;;;;5064122;28;20048;-71
2024/01/08 02:09:15;;;;;;;2.28;1.75;;;-1.70;99.90;;;;;;5062922;28;20032;-71
2024/01/08 02:11:42;;;;;;;2.72;2.53;;;-1.60;99.90;;;;;;5038662;28;20037;-71
2024/01/08 02:14:08;;;;;;;2.30;2.00;;;-1.60;99.90;;;;;;5062801;28;20060;-71
2024/01/08 02:16:35;;;;;;;4.13;3.17;;;-1.60;99.90;;;;;;5060746;28;20036;-72
2024/01/08 02:19:01;;;;;;;1.52;1.42;;;-1.60;99.90;;;;;;5058973;28;20040;-71
2024/01/08 02:21:27;;;;;;;3.72;3.42;;;-1.60;99.90;;;;;;5054261;28;20078;-71
2024/01/08 02:23:53;;;;;;;2.95;2.75;;;-1.60;99.90;;;;;;5060527;28;20989;-72
2024/01/08 02:26:21;;;;;;;1.73;1.63;;;-1.50;99.90;;;;;;5065639;28;20394;-72
2024/01/08 02:28:46;;;;;;;4.80;1.58;;;-1.50;99.90;;;;;;5061203;28;20048;-72
2024/01/08 02:31:12;;;;;;;3.17;2.67;;;-1.50;99.90;;;;;;5067094;28;20044;-72
2024/01/08 02:33:38;;;;;;;10.32;3.78;;;-1.50;99.90;;;;;;5068315;28;20063;-72
2024/01/08 02:36:04;;;;;;;3.13;2.88;;;-1.50;99.90;;;;;;5066732;28;20121;-72
2024/01/08 02:38:30;;;;;;;1.75;1.65;;;-1.50;99.90;;;;;;5061057;28;20033;-72
2024/01/08 02:40:57;;;;;;;3.45;2.55;;;-1.40;99.90;;;;;;5066055;28;20025;-72
2024/01/08 02:43:24;;;;;;;2.08;1.92;;;-1.40;99.90;;;;;;5063081;28;20037;-72
2024/01/08 02:45:50;;;;;;;4.35;3.28;;;-1.40;99.90;;;;;;5048212;28;20170;-72
2024/01/08 02:48:15;;;;;;;3.63;3.38;;;-1.40;99.90;;;;;;5064174;28;20123;-72
2024/01/08 02:50:41;;;;;;;2.50;2.30;;;-1.40;99.90;;;;;;5068562;28;20111;-72
2024/01/08 02:53:07;;;;;;;5.70;2.42;;;-1.30;99.90;;;;;;5068388;28;20048;-72
2024/01/08 02:55:33;;;;;;;2.00;1.80;;;-1.30;99.90;;;;;;5052868;28;20123;-71
2024/01/08 02:58:02;;;;;;;4.97;2.00;;;-1.30;99.90;;;;;;5046854;28;20072;-72
2024/01/08 03:00:27;;;;;;;1.80;1.77;;;-1.30;99.90;;;;;;5061061;28;20366;-72
2024/01/08 03:02:53;;;;;;;2.30;2.20;;;-1.30;99.90;;;;;;5062604;28;20509;-71
2024/01/08 03:05:19;;;;;;;3.53;3.30;;;-1.30;99.90;;;;;;5061655;28;20300;-71
2024/01/08 03:07:44;;;;;;;2.75;2.50;;;-1.30;99.90;;;;;;5063075;28;20087;-72
2024/01/08 03:10:10;;;;;;;2.97;2.78;;;-1.30;99.90;;;;;;5064582;28;20048;-72
2024/01/08 03:12:36;;;;;;;3.28;2.97;;;-1.20;99.90;;;;;;5040203;28;20033;-71
2024/01/08 03:15:01;;;;;;;5.10;2.70;;;-1.20;99.90;;;;;;5062439;28;20151;-72
2024/01/08 03:17:27;;;;;;;2.17;2.08;;;-1.20;99.90;;;;;;5059979;28;20081;-72
2024/01/08 03:19:53;;;;;;;3.50;2.28;;;-1.20;99.90;;;;;;5057389;28;20041;-72
2024/01/08 03:22:18;;;;;;;3.85;2.22;;;-1.10;99.90;;;;;;5050407;28;20398;-73
2024/01/08 03:24:44;;;;;;;2.13;2.03;;;-1.20;99.90;;;;;;5058704;28;20044;-73
2024/01/08 03:27:10;;;;;;;2.72;2.15;;;-1.10;99.90;;;;;;5056409;28;20036;-72
2024/01/08 03:29:37;;;;;;;2.80;2.63;;;-1.10;99.90;;;;;;5059327;28;20052;-73
2024/01/08 03:32:03;;;;;;;4.13;3.15;;;-1.10;99.90;;;;;;5056270;28;20036;-73
2024/01/08 03:34:29;;;;;;;4.80;4.00;;;-1.10;99.90;;;;;;5049820;28;20560;-73
2024/01/08 03:36:54;;;;;;;2.40;2.30;;;-1.10;99.90;;;;;;5065094;28;20037;-73
2024/01/08 03:39:20;;;;;;;1.95;1.85;;;-1.10;99.90;;;;;;5065084;28;20040;-73
2024/01/08 03:41:46;;;;;;;1.75;1.67;;;-1.10;99.90;;;;;;5061614;28;20497;-72
2024/01/08 03:44:14;;;;;;;2.58;2.38;;;-1.10;99.90;;;;;;5060677;28;20037;-73
2024/01/08 03:46:39;;;;;;;3.25;1.83;;;-1.10;99.90;;;;;;5039391;28;20435;-71
2024/01/08 03:49:07;;;;;;;1.63;1.52;;;-1.10;99.90;;;;;;5052345;28;20045;-73
2024/01/08 03:51:34;;;;;;;2.78;2.58;;;-1.10;99.90;;;;;;5054114;28;20044;-72
2024/01/08 03:54:00;;;;;;;1.88;1.77;;;-1.10;99.90;;;;;;5066631;28;20118;-73
2024/01/08 03:56:26;;;;;;;3.00;2.80;;;-1.10;99.90;;;;;;5067221;28;20461;-74
2024/01/08 03:58:51;;;;;;;5.63;2.70;;;-1.10;99.90;;;;;;5066779;28;20517;-73
2024/01/08 04:01:17;;;;;;;4.50;2.72;;;-1.10;99.90;;;;;;5066705;28;20040;-72
2024/01/08 04:03:43;;;;;;;2.25;2.15;;;-1.10;99.90;;;;;;5046978;28;20036;-71
2024/01/08 04:06:09;;;;;;;3.15;2.85;;;-1.10;99.90;;;;;;5061665;28;20044;-72
2024/01/08 04:08:34;;;;;;;2.50;2.22;;;-1.10;99.90;;;;;;5066596;28;20045;-72
2024/01/08 04:11:00;;;;;;;3.28;2.20;;;-1.20;99.90;;;;;;5066602;28;20040;-72
2024/01/08 04:13:26;;;;;;;1.70;1.60;;;-1.20;99.90;;;;;;5062472;28;20045;-72
2024/01/08 04:15:52;;;;;;;2.00;1.77;;;-1.20;99.90;;;;;;5063671;28;20043;-71
2024/01/08 04:18:17;;;;;;;1.13;1.13;;;-1.20;99.90;;;;;;5066833;28;20394;-73
2024/01/08 04:20:43;;;;;;;1.83;1.73;;;-1.20;99.90;;;;;;5067036;28;20098;-73
2024/01/08 04:23:09;;;;;;;2.88;2.22;;;-1.20;99.90;;;;;;5065370;28;20051;-73
2024/01/08 04:25:35;;;;;;;2.65;2.38;;;-1.20;99.90;;;;;;5049670;28;20041;-73
2024/01/08 04:28:00;;;;;;;3.42;2.03;;;-1.20;99.90;;;;;;5043242;28;20108;-73
2024/01/08 04:30:26;;;;;;;2.13;2.03;;;-1.30;99.90;;;;;;5059992;28;20056;-72
2024/01/08 04:32:53;;;;;;;3.65;2.40;;;-1.30;99.90;;;;;;5040405;28;20048;-73
2024/01/08 04:35:18;;;;;;;4.70;2.85;;;-1.30;99.90;;;;;;5039535;28;20447;-73
2024/01/08 04:37:44;;;;;;;2.28;2.08;;;-1.30;99.90;;;;;;5029714;28;20122;-73
2024/01/08 04:40:10;;;;;;;1.25;1.15;;;-1.30;99.90;;;;;;5058142;28;20032;-73
2024/01/08 04:42:36;;;;;;;2.10;2.00;;;-1.30;99.90;;;;;;5061355;28;20036;-72
2024/01/08 04:45:02;;;;;;;1.85;1.75;;;-1.30;99.90;;;;;;5049650;28;20043;-73
2024/01/08 04:47:28;;;;;;;4.05;2.50;;;-1.30;99.90;;;;;;5044606;28;20037;-71
2024/01/08 04:49:54;;;;;;;2.50;2.30;;;-1.40;99.90;;;;;;5049233;28;20032;-72
2024/01/08 04:52:19;;;;;;;5.07;2.38;;;-1.40;99.90;;;;;;5045210;28;20056;-73
2024/01/08 04:54:45;;;;;;;2.05;1.95;;;-1.40;99.90;;;;;;5062183;28;20036;-73
2024/01/08 04:57:11;;;;;;;1.60;1.50;;;-1.40;99.90;;;;;;5065608;28;20048;-72
2024/01/08 04:59:43;;;;;;;1.70;1.60;;;-1.40;99.90;;;;;;5037542;28;20045;-73
2024/01/08 05:02:09;;;;;;;2.63;2.42;;;-1.40;99.90;;;;;;5066141;28;20040;-73
2024/01/08 05:04:35;;;;;;;1.52;1.35;;;-1.40;99.90;;;;;;5049363;28;20121;-73
2024/01/08 05:07:02;;;;;;;2.10;1.90;;;-1.40;99.90;;;;;;5062068;28;20080;-72
2024/01/08 05:09:29;;;;;;;2.17;2.03;;;-1.50;99.90;;;;;;5052250;28;20044;-72
2024/01/08 05:11:54;;;;;;;2.30;2.13;;;-1.50;99.90;;;;;;5043554;28;20044;-73
2024/01/08 05:14:20;;;;;;;2.45;2.28;;;-1.50;99.90;;;;;;5041252;28;20086;-73
2024/01/08 05:16:46;;;;;;;2.30;1.73;;;-1.60;99.90;;;;;;5043224;28;20042;-74
2024/01/08 05:19:12;;;;;;;3.05;2.85;;;-1.60;99.90;;;;;;5063685;28;20047;-72
2024/01/08 05:21:37;;;;;;;2.22;1.90;;;-1.60;99.90;;;;;;5066112;28;20393;-71
2024/01/08 05:24:04;;;;;;;9.65;3.80;;;-1.60;99.90;;;;;;5065747;28;20040;-73
2024/01/08 05:26:29;;;;;;;2.70;2.13;;;-1.70;99.90;;;;;;5058267;28;20048;-71
2024/01/08 05:28:56;;;;;;;1.63;1.52;;;-1.70;99.90;;;;;;5064949;28;20298;-71
2024/01/08 05:31:22;;;;;;;5.38;2.20;;;-1.70;99.90;;;;;;5064736;28;20049;-72
2024/01/08 05:33:49;;;;;;;2.97;2.72;;;-1.70;99.90;;;;;;5061082;28;20090;-71
2024/01/08 05:36:15;;;;;;;4.10;2.92;;;-1.80;99.90;;;;;;5060074;28;20040;-72
2024/01/08 05:38:41;;;;;;;2.45;2.22;;;-1.80;99.90;;;;;;5062759;28;20044;-72
2024/01/08 05:41:06;;;;;;;1.25;1.25;;;-1.80;99.90;;;;;;5063265;28;20059;-72
2024/01/08 05:43:37;;;;;;;2.15;2.05;;;-1.80;99.90;;;;;;5056013;28;20040;-73
2024/01/08 05:46:05;;;;;;;1.92;1.83;;;-1.80;99.90;;;;;;5044759;28;20036;-73
2024/01/08 05:48:37;;;;;;;2.25;2.05;;;-1.80;99.90;;;;;;5055283;28;20090;-73
2024/01/08 05:51:06;;;;;;;2.83;2.58;;;-1.80;99.90;;;;;;5047241;28;20059;-72
2024/01/08 05:53:32;;;;;;;1.15;1.15;;;-1.80;99.90;;;;;;5051455;28;20047;-72
2024/01/08 05:55:58;;;;;;;1.45;1.35;;;-1.80;99.90;;;;;;5047384;28;20037;-72
2024/01/08 05:58:24;;;;;;;2.72;2.50;;;-1.80;99.90;;;;;;5062381;28;20040;-73
2024/01/08 06:00:53;;;;;;;5.22;2.92;;;-1.80;99.90;;;;;;5061642;28;20037;-73
2024/01/08 06:03:20;;;;;;;2.55;2.35;;;-1.70;99.90;;;;;;5064848;28;20106;-73
2024/01/08 06:05:45;;;;;;;3.33;2.30;;;-1.80;99.90;;;;;;5043487;28;20045;-72
2024/01/08 06:08:11;;;;;;;3.15;2.85;;;-1.80;99.90;;;;;;5041417;28;20040;-73
2024/01/08 06:10:38;;;;;;;1.60;1.58;;;-1.70;99.90;;;;;;5058803;28;20497;-73
2024/01/08 06:13:05;;;;;;;2.53;2.35;;;-1.70;99.90;;;;;;5066065;28;20063;-72
2024/01/08 06:15:31;;;;;;;2.55;2.42;;;-1.70;99.90;;;;;;5048459;28;20140;-73
2024/01/08 06:17:57;;;;;;;1.23;1.23;;;-1.70;99.90;;;;;;5059449;28;20495;-74
2024/01/08 06:20:22;;;;;;;2.67;2.53;;;-1.70;99.90;;;;;;5042642;28;20036;-73
2024/01/08 06:22:48;;;;;;;6.25;3.20;;;-1.70;99.90;;;;;;5061009;28;20040;-73
2024/01/08 06:25:14;;;;;;;1.80;1.70;;;-1.70;99.90;;;;;;5052692;28;20119;-73
2024/01/08 06:27:39;;;;;;;4.43;3.38;;;-1.70;99.90;;;;;;5059646;28;20060;-72
2024/01/08 06:30:06;;;;;;;2.25;2.08;;;-1.70;99.90;;;;;;5043732;28;20379;-73
2024/01/08 06:32:31;;;;;;;1.67;1.58;;;-1.60;99.90;;;;;;5058477;28;20049;-72
2024/01/08 06:34:57;;;;;;;2.53;1.38;;;-1.60;99.90;;;;;;5046605;28;20063;-74
2024/01/08 06:37:22;;;;;;;2.78;2.55;;;-1.60;99.90;;;;;;5044659;28;20386;-74
2024/01/08 06:39:48;;;;;;;6.07;1.52;;;-1.60;99.90;;;;;;5064713;28;20112;-74
2024/01/08 06:42:14;;;;;;;1.50;1.27;;;-1.60;99.90;;;;;;5042935;28;20028;-74
2024/01/08 06:44:39;;;;;;;4.63;2.20;;;-1.60;99.90;;;;;;5045528;28;20501;-72
2024/01/08 06:47:05;;;;;;;2.47;1.67;;;-1.60;99.90;;;;;;5066670;28;20544;-72
2024/01/08 06:49:31;;;;;;;2.05;1.73;;;-1.60;99.90;;;;;;5062679;28;20046;-73
2024/01/08 06:51:59;;;;;;;2.38;2.17;;;-1.60;99.90;;;;;;5043879;28;20037;-72
2024/01/08 06:54:25;;;;;;;3.20;2.30;;;-1.60;99.90;;;;;;5037988;28;20429;-73
2024/01/08 06:56:50;;;;;;;2.17;1.90;;;-1.60;99.90;;;;;;5060417;28;20147;-73
2024/01/08 06:59:16;;;;;;;2.38;2.20;;;-1.60;99.90;;;;;;5044820;28;20124;-73
2024/01/08 07:01:42;;;;;;;3.15;1.05;;;-1.60;99.90;;;;;;5055839;28;20088;-72
2024/01/08 07:04:07;;;;;;;1.05;0.95;;;-1.50;99.90;;;;;;5066544;28;20068;-71
2024/01/08 07:06:33;;;;;;;2.05;1.92;;;-1.50;99.90;;;;;;5043310;28;20046;-71
2024/01/08 07:08:59;;;;;;;1.40;1.40;;;-1.50;99.90;;;;;;5061508;28;20095;-72
2024/01/08 07:11:25;;;;;;;2.38;2.17;;;-1.50;99.90;;;;;;5051536;28;20043;-71
2024/01/08 07:13:51;;;;;;;3.38;3.10;;;-1.40;99.90;;;;;;5063951;28;20138;-72
2024/01/08 07:16:17;;;;;;;1.17;1.02;;;-1.40;99.90;;;;;;5062130;28;20051;-72
2024/01/08 07:18:44;;;;;;;1.77;1.67;;;-1.40;99.90;;;;;;5061639;28;20394;-72
2024/01/08 07:21:11;;;;;;;5.50;2.00;;;-1.40;99.90;;;;;;5050868;28;20036;-72
2024/01/08 07:23:37;;;;;;;1.75;1.65;;;-1.40;99.90;;;;;;5066896;28;20424;-72
2024/01/08 07:26:03;;;;;;;2.42;1.80;;;-1.40;99.90;;;;;;5067921;28;20040;-71
2024/01/08 07:28:29;;;;;;;2.60;2.00;;;-1.30;99.90;;;;;;5050101;28;20037;-72
2024/01/08 07:30:55;;;;;;;6.70;2.75;;;-1.30;99.90;;;;;;5067520;28;20115;-71
2024/01/08 07:33:21;;;;;;;2.83;2.63;;;-1.30;99.90;;;;;;5062867;28;20151;-72
2024/01/08 07:35:47;;;;;;;3.20;2.30;;;-1.30;99.90;;;;;;5059038;28;20127;-72
2024/01/08 07:38:13;;;;;;;2.10;1.92;;;-1.30;99.90;;;;;;5055106;28;20394;-71
2024/01/08 07:40:39;;;;;;;2.22;2.13;;;-1.30;99.90;;;;;;5067088;28;20101;-72
2024/01/08 07:43:04;;;;;;;2.28;2.05;;;-1.20;99.90;;;;;;5062191;28;20041;-71
2024/01/08 07:45:30;;;;;;;1.90;1.80;;;-1.20;99.90;;;;;;5064903;28;20054;-71
2024/01/08 07:47:57;;;;;;;1.27;1.25;;;-1.20;99.90;;;;;;5065527;28;20033;-71
2024/01/08 07:50:22;;;;;;;2.15;2.05;;;-1.20;99.90;;;;;;5064368;28;20557;-71
2024/01/08 07:52:48;;;;;;;4.65;2.88;;;-1.20;99.90;;;;;;5066707;28;20155;-71
2024/01/08 07:55:14;;;;;;;3.72;3.42;;;-1.10;99.90;;;;;;5058094;28;20033;-71
2024/01/08 07:57:40;;;;;;;4.32;2.42;;;-1.10;99.90;;;;;;5061598;28;20505;-71
2024/01/08 08:00:09;;;;;;;3.10;2.13;;;-1.10;99.90;;;;;;5060901;28;20056;-71
2024/01/08 08:02:35;;;;;;;2.80;2.47;;;-1.10;99.90;;;;;;5063625;28;20044;-73
2024/01/08 08:05:01;;;;;;;1.98;1.77;;;-1.10;99.90;;;;;;5065034;28;20048;-73
2024/01/08 08:07:28;;;;;;;1.80;1.73;;;-1.10;99.90;;;;;;5066482;28;20049;-72
2024/01/08 08:09:54;;;;;;;2.85;2.25;;;-1.00;99.90;;;;;;5045018;28;20036;-73
2024/01/08 08:12:20;;;;;;;1.92;1.35;;;-1.00;99.90;;;;;;5064513;28;20044;-72
2024/01/08 08:14:49;;;;;;;1.65;1.55;;;-1.00;99.90;;;;;;5057915;28;20037;-72
2024/01/08 08:17:16;;;;;;;1.20;1.20;;;-1.00;99.90;;;;;;5054967;28;20461;-73
2024/01/08 08:19:42;;;;;;;6.10;1.65;;;-1.00;99.90;;;;;;5048657;28;20395;-72
2024/01/08 08:22:12;;;;;;;1.45;1.35;;;-1.00;99.90;;;;;;5050945;28;20120;-72
2024/01/08 08:24:41;;;;;;;2.75;2.03;;;-0.90;99.90;;;;;;5031848;28;20040;-73
2024/01/08 08:27:11;;;;;;;1.88;1.75;;;-1.00;99.90;;;;;;5040327;28;20119;-72
2024/01/08 08:29:44;;;;;;;2.13;1.95;;;-0.90;99.90;;;;;;5057652;28;20053;-73
2024/01/08 08:32:09;;;;;;;3.50;1.98;;;-1.00;99.90;;;;;;5066061;28;20075;-73
2024/01/08 08:34:36;;;;;;;3.03;1.95;;;-0.90;99.90;;;;;;5063035;28;20764;-73
2024/01/08 08:37:02;;;;;;;2.47;2.33;;;-0.90;99.90;;;;;;5052466;28;20037;-72
2024/01/08 08:39:28;;;;;;;1.60;1.30;;;-0.90;99.90;;;;;;5060396;28;20079;-73
2024/01/08 08:41:57;;;;;;;2.15;2.05;;;-0.90;99.90;;;;;;5040469;28;20041;-73
2024/01/08 08:44:23;;;;;;;2.53;2.03;;;-0.90;99.90;;;;;;5041973;28;20376;-74
2024/01/08 08:46:50;;;;;;;4.53;1.35;;;-0.90;99.90;;;;;;5046209;28;20513;-73
2024/01/08 08:49:16;;;;;;;6.60;1.80;;;-0.90;99.90;;;;;;5047651;28;20155;-73
2024/01/08 08:51:43;;;;;;;1.08;0.70;;;-0.90;99.90;;;;;;5043083;28;20167;-74
2024/01/08 08:54:09;;;;;;;3.60;2.15;;;-0.90;99.90;;;;;;5048786;28;20510;-72
2024/01/08 08:56:34;;;;;;;1.40;1.25;;;-0.90;99.90;;;;;;5061206;28;20048;-73
2024/01/08 08:59:00;;;;;;;1.73;1.63;;;-0.80;99.90;;;;;;5043726;28;20040;-73
2024/01/08 09:01:29;;;;;;;2.05;1.90;;;-0.80;99.90;;;;;;5063039;28;20558;-73
2024/01/08 09:03:55;;;;;;;;;;;-0.80;99.90;;;;;;5056445;28;20036;-73
2024/01/08 09:06:24;;;;;;;1.50;1.38;;;-0.80;99.90;;;;;;5065693;28;19928;-73
2024/01/08 09:08:53;;;;;;;2.40;2.28;;;-0.80;99.90;;;;;;5058802;28;20048;-72
2024/01/08 09:11:19;;;;;;;1.95;1.85;;;-0.80;99.90;;;;;;5058505;28;20375;-73
2024/01/08 09:13:47;;;;;;;3.97;1.63;;;-0.80;99.90;;;;;;5044376;28;20044;-73
2024/01/08 09:16:14;;;;;;;1.55;1.42;;;-0.80;99.90;;;;;;5051194;28;20043;-73
2024/01/08 09:18:43;;;;;;;2.78;2.47;;;-0.70;99.90;;;;;;5037962;28;20166;-73
2024/01/08 09:21:13;;;;;;;5.18;1.92;;;-0.80;99.90;;;;;;5045826;28;20047;-73
2024/01/08 09:23:42;;;;;;;1.73;1.63;;;-0.70;99.90;;;;;;5059924;28;20154;-73
2024/01/08 09:26:08;;;;;;;2.33;2.10;;;-0.70;99.90;;;;;;5053792;28;20044;-73
2024/01/08 09:28:34;;;;;;;2.85;1.65;;;-0.70;99.90;;;;;;5039222;28;20028;-73
2024/01/08 09:31:02;;;;;;;1.55;1.45;;;-0.70;99.90;;;;;;5045255;28;20051;-73
2024/01/08 09:33:28;;;;;;;0.40;0.40;;;-0.70;99.90;;;;;;5061660;28;20052;-73
2024/01/08 09:35:53;;;;;;;1.50;1.40;;;-0.70;99.90;;;;;;5047034;28;20078;-73
2024/01/08 09:38:19;;;;;;;1.48;1.38;;;-0.60;99.90;;;;;;5048493;28;20157;-73
2024/01/08 09:40:47;;;;;;;2.72;2.53;;;-0.60;99.90;;;;;;5057489;28;20167;-73
2024/01/08 09:43:18;;;;;;;2.25;2.10;;;-0.60;99.90;;;;;;5051277;28;20033;-73
2024/01/08 09:46:03;;;;;;;1.15;1.15;;;-0.60;99.90;;;;;;5048703;28;20051;-73
2024/01/08 09:48:30;;;;;;;2.60;2.42;;;-0.60;99.90;;;;;;5053532;28;20521;-73
2024/01/08 09:50:58;;;;;;;3.83;2.25;;;-0.60;99.90;;;;;;5058731;28;20040;-73
2024/01/08 09:53:27;;;;;;;1.25;1.23;;;-0.60;99.90;;;;;;5064239;28;20394;-73
2024/01/08 09:55:53;;;;;;;1.88;1.73;;;-0.50;99.90;;;;;;5061906;28;20051;-73
2024/01/08 09:58:19;;;;;;;2.30;2.13;;;-0.50;99.90;;;;;;5056489;28;20094;-73
2024/01/08 10:00:44;;;;;;;1.60;1.50;;;-0.50;99.90;;;;;;5054028;28;20435;-73
2024/01/08 10:03:11;;;;;;;1.65;1.65;;;-0.40;99.90;;;;;;5054159;28;20048;-73
2024/01/08 10:05:38;;;;;;;2.55;1.88;;;-0.40;99.90;;;;;;5048331;28;20123;-73
2024/01/08 10:08:05;;;;;;;1.55;1.52;;;-0.40;99.90;;;;;;5050816;28;20037;-73
2024/01/08 10:10:32;;;;;;;1.23;1.20;;;-0.40;99.90;;;;;;5057685;28;20119;-73
2024/01/08 10:12:57;;;;;;;2.65;2.03;;;-0.30;99.90;;;;;;5058987;28;20037;-72
2024/01/08 10:15:23;;;;;;;4.63;3.25;;;-0.30;99.90;;;;;;5044764;28;20525;-73
2024/01/08 10:17:50;;;;;;;2.10;2.00;;;-0.30;99.90;;;;;;5056466;28;20039;-73
2024/01/08 10:20:17;;;;;;;2.42;2.22;;;-0.30;99.90;;;;;;5055792;28;20063;-73
2024/01/08 10:22:47;;;;;;;3.80;2.20;;;-0.30;99.90;;;;;;5036432;28;20116;-73
2024/01/08 10:25:21;;;;;;;1.58;1.48;;;-0.30;99.90;;;;;;5055798;28;20502;-74
2024/01/08 10:27:47;;;;;;;2.10;1.85;;;-0.30;99.90;;;;;;5057246;28;20556;-73
2024/01/08 10:30:12;;;;;;;13.07;2.80;;;-0.30;99.90;;;;;;5055288;28;20061;-74
2024/01/08 10:32:38;;;;;;;2.65;2.45;;;-0.30;99.90;;;;;;5058218;28;20044;-73
2024/01/08 10:35:04;;;;;;;2.33;2.13;;;-0.30;99.90;;;;;;5054757;28;20666;-73
2024/01/08 10:37:30;;;;;;;3.03;2.72;;;-0.30;99.90;;;;;;5057986;28;20033;-74
2024/01/08 10:39:58;;;;;;;2.53;2.33;;;-0.20;99.90;;;;;;5061032;28;20044;-73
2024/01/08 10:42:23;;;;;;;3.22;2.15;;;-0.20;99.90;;;;;;5064540;28;20028;-74
2024/01/08 10:44:50;;;;;;;2.25;2.03;;;-0.20;99.90;;;;;;5065434;28;20383;-72
2024/01/08 10:47:19;;;;;;;5.57;2.08;;;-0.20;99.90;;;;;;5046287;28;20051;-72
2024/01/08 10:49:55;;;;;;;4.03;3.08;;;-0.20;99.90;;;;;;5050910;28;20028;-72
2024/01/08 10:52:28;;;;;;;1.65;1.55;;;-0.10;99.90;;;;;;5066720;28;20078;-73
2024/01/08 10:54:55;;;;;;;2.72;1.60;;;-0.10;99.90;;;;;;5048556;28;20036;-72
2024/01/08 10:57:26;;;;;;;2.70;2.60;;;-0.10;99.90;;;;;;5061240;28;20504;-72
2024/01/08 10:59:53;;;;;;;5.05;1.98;;;-0.10;99.90;;;;;;5059129;28;20055;-71
2024/01/08 11:02:19;;;;;;;9.48;2.42;;;-0.10;99.90;;;;;;5052581;28;20037;-72
2024/01/08 11:04:45;;;;;;;2.55;2.03;;;-0.10;99.90;;;;;;5037450;28;20032;-71
2024/01/08 11:07:13;;;;;;;2.70;1.95;;;-0.10;99.90;;;;;;5059325;28;20068;-72
2024/01/08 11:09:40;;;;;;;1.75;1.65;;;-0.10;99.90;;;;;;5067493;28;20040;-71
2024/01/08 11:12:10;;;;;;;1.70;1.60;;;0.00;99.90;;;;;;5059373;28;20037;-72
2024/01/08 11:14:38;;;;;;;2.88;2.55;;;-0.10;99.90;;;;;;5046387;28;20091;-72
2024/01/08 11:17:08;;;;;;;2.90;2.67;;;-0.10;99.90;;;;;;5060153;28;20066;-72
2024/01/08 11:19:40;;;;;;;1.60;1.50;;;-0.10;99.90;;;;;;5043577;28;20040;-72
2024/01/08 11:22:10;;;;;;;1.25;1.23;;;-0.10;99.90;;;;;;5067490;28;20123;-72
2024/01/08 11:24:37;;;;;;;2.50;2.40;;;-0.20;99.90;;;;;;5050213;28;20036;-72
2024/01/08 11:27:03;;;;;;;1.75;1.67;;;-0.20;99.90;;;;;;5058197;28;20060;-72
2024/01/08 11:29:28;;;;;;;3.70;2.83;;;-0.10;99.90;;;;;;5042856;28;20057;-72
2024/01/08 11:32:26;;;;;;;1.80;1.70;;;-0.10;99.90;;;;;;5041031;28;20056;-74
2024/01/08 11:35:03;;;;;;;1.52;1.42;;;0.00;99.90;;;;;;5057591;28;20075;-72
2024/01/08 11:37:31;;;;;;;2.17;1.97;;;0.10;99.90;;;;;;5032818;28;20562;-73
2024/01/08 11:39:57;;;;;;;3.67;2.35;;;0.20;99.90;;;;;;5043974;28;20044;-72
2024/01/08 11:42:23;;;;;;;2.30;2.10;;;0.20;99.90;;;;;;5039857;28;20079;-73
2024/01/08 11:44:49;;;;;;;2.22;1.63;;;0.10;99.90;;;;;;5066983;28;20044;-74
2024/01/08 11:47:17;;;;;;;1.30;1.20;;;0.10;99.90;;;;;;5054215;28;20035;-73
2024/01/08 11:49:43;;;;;;;1.58;1.48;;;0.00;99.90;;;;;;5048662;28;20086;-72
2024/01/08 11:52:09;;;;;;;2.22;2.05;;;0.00;99.90;;;;;;5061319;28;20067;-73
2024/01/08 11:54:35;;;;;;;4.57;2.42;;;0.00;99.90;;;;;;5054131;28;20060;-73
2024/01/08 11:57:05;;;;;;;3.38;1.77;;;0.10;99.90;;;;;;5034678;28;20037;-74
2024/01/08 11:59:35;;;;;;;2.85;1.58;;;0.10;99.90;;;;;;5064781;28;20080;-74
2024/01/08 12:02:23;;;;;;;1.80;1.70;;;0.00;99.90;;;;;;5049809;28;20041;-72
2024/01/08 12:04:57;;;;;;;2.05;1.95;;;0.00;99.90;;;;;;5064455;28;20502;-74
2024/01/08 12:07:25;;;;;;;1.63;1.58;;;0.00;99.90;;;;;;5050168;28;20032;-74
2024/01/08 12:09:51;;;;;;;1.55;1.45;;;0.00;99.90;;;;;;5064302;28;20067;-73
2024/01/08 12:12:18;;;;;;;1.88;1.73;;;0.10;99.90;;;;;;5040077;28;20087;-74
2024/01/08 12:14:48;;;;;;;3.10;1.95;;;0.10;99.90;;;;;;5057033;28;20037;-74
2024/01/08 12:17:21;;;;;;;4.13;2.38;;;0.10;99.90;;;;;;5050301;28;20036;-73
2024/01/08 12:19:54;;;;;;;1.83;1.73;;;0.20;99.90;;;;;;5046149;28;20037;-74
2024/01/08 12:22:21;;;;;;;2.05;1.95;;;0.20;99.90;;;;;;5049835;28;20090;-72
2024/01/08 12:24:49;;;;;;;1.52;1.42;;;0.30;99.90;;;;;;5059040;28;20040;-73
2024/01/08 12:27:17;;;;;;;1.58;1.48;;;0.30;99.90;;;;;;5045338;28;20042;-74
2024/01/08 12:29:44;;;;;;;4.88;1.75;;;0.30;99.90;;;;;;5050036;28;20479;-74
2024/01/08 12:32:15;;;;;;;2.35;2.20;;;0.30;99.90;;;;;;5044765;28;20067;-72
2024/01/08 12:34:40;;;;;;;1.33;1.23;;;0.30;99.90;;;;;;5060018;28;20041;-72
2024/01/08 12:37:11;;;;;;;1.80;1.70;;;0.40;99.90;;;;;;5065589;28;20518;-72
2024/01/08 12:39:38;;;;;;;2.10;2.00;;;0.40;99.90;;;;;;5060484;28;20043;-72
2024/01/08 12:42:06;;;;;;;1.48;1.38;;;0.40;99.90;;;;;;5064307;28;20036;-73
2024/01/08 12:44:32;;;;;;;3.08;2.78;;;0.40;99.90;;;;;;5065747;28;20042;-73